Time;durP1;ratioP1;P1;durP2;ratioP2;P2;SDS_P1;SDS_P2;PMS_P1;PMS_P2;Temp;Humidity;BMP_temperature;BMP_pressure;BME280_temperature;BME280_humidity;BME280_pressure;Samples;Min_cycle;Max_cycle;Signal;HPM_P1;HPM_P2
2022/01/06 00:00:22;;;;;;;14.23;2.17;;;;;;;-149.78;100.00;50592.72;5059316;28;20040;-62
2022/01/06 00:02:47;;;;;;;9.05;1.40;;;;;;;-149.78;100.00;50557.50;5076995;28;20043;-61
2022/01/06 00:05:13;;;;;;;14.02;1.77;;;;;;;-149.78;100.00;50580.97;5076459;28;20040;-62
2022/01/06 00:07:39;;;;;;;5.03;1.35;;;;;;;-149.78;100.00;50577.06;5058949;28;20090;-61
2022/01/06 00:10:10;;;;;;;8.07;1.48;;;;;;;-149.78;100.00;50565.31;5058855;28;20036;-61
2022/01/06 00:12:45;;;;;;;8.63;1.90;;;;;;;-149.78;100.00;50565.31;5076926;28;20042;-61
2022/01/06 00:15:28;;;;;;;6.75;1.55;;;;;;;-149.78;100.00;50561.41;5076603;28;20487;-62
2022/01/06 00:25:38;;;;;;;2.00;1.08;;;;;;;-149.78;100.00;50561.41;5076521;28;20040;-62
2022/01/06 00:28:04;;;;;;;8.75;1.25;;;;;;;-149.78;100.00;50620.09;5076152;28;20047;-62
2022/01/06 00:30:30;;;;;;;4.03;1.05;;;;;;;-149.78;100.00;50534.03;5076322;28;20029;-61
2022/01/06 00:32:55;;;;;;;3.58;1.23;;;;;;;-149.78;100.00;50553.59;5076293;28;20086;-61
2022/01/06 00:35:21;;;;;;;9.20;1.67;;;;;;;-149.78;100.00;50549.69;5076269;28;20040;-61
2022/01/06 00:37:47;;;;;;;4.50;1.23;;;;;;;-149.78;100.00;50577.06;5076364;28;20039;-62
2022/01/06 00:40:13;;;;;;;8.00;1.30;;;;;;;-149.78;100.00;50592.72;5075914;28;20041;-61
2022/01/06 00:42:39;;;;;;;3.47;1.50;;;;;;;-149.78;100.00;50584.88;5058241;28;20071;-61
2022/01/06 00:45:05;;;;;;;7.70;1.23;;;;;;;-149.78;100.00;50573.16;5057915;28;20036;-61
2022/01/06 00:47:31;;;;;;;6.88;1.98;;;;;;;-149.78;100.00;50573.16;5075976;28;20047;-61
2022/01/06 00:49:56;;;;;;;3.40;1.42;;;;;;;-149.78;100.00;50569.22;5076118;28;20115;-62
2022/01/06 00:52:22;;;;;;;2.15;1.08;;;;;;;-149.78;100.00;50537.94;5076162;28;20385;-62
2022/01/06 00:54:47;;;;;;;7.13;1.20;;;;;;;-149.78;100.00;50557.50;5075984;28;20041;-62
2022/01/06 00:57:13;;;;;;;10.27;1.20;;;;;;;-149.78;100.00;50545.75;5075800;28;20032;-62
2022/01/06 00:59:39;;;;;;;7.93;1.50;;;;;;;-149.78;100.00;50537.94;5075681;28;20420;-62
2022/01/06 01:02:04;;;;;;;7.35;1.27;;;;;;;-149.78;100.00;50522.28;5075701;28;20476;-62
2022/01/06 01:04:30;;;;;;;6.57;1.15;;;;;;;-149.78;100.00;50557.50;5057667;28;20388;-61
2022/01/06 01:06:56;;;;;;;5.75;1.25;;;;;;;-149.78;100.00;50561.41;5075704;28;20039;-62
2022/01/06 01:09:22;;;;;;;6.13;1.30;;;;;;;-149.78;100.00;50549.69;5075274;28;20037;-62
2022/01/06 01:11:48;;;;;;;7.88;1.35;;;;;;;-149.78;100.00;50559.47;5075513;28;20029;-62
2022/01/06 01:14:43;;;;;;;6.47;1.13;;;;;;;-149.78;100.00;50553.59;5075320;28;20486;-62
2022/01/06 01:17:03;;;;;;;8.18;1.48;;;;;;;-149.78;100.00;50565.31;5074304;28;20067;-62
2022/01/06 01:19:30;;;;;;;3.70;1.00;;;;;;;-149.78;100.00;50577.06;5075309;28;20070;-62
2022/01/06 01:21:57;;;;;;;6.65;1.35;;;;;;;-149.78;100.00;50577.06;5075145;28;20079;-62
2022/01/06 01:24:24;;;;;;;3.22;1.00;;;;;;;-149.78;100.00;50592.72;5057266;28;20090;-62
2022/01/06 01:26:50;;;;;;;7.75;0.90;;;;;;;-149.78;100.00;50555.53;5075106;28;20052;-62
2022/01/06 01:29:18;;;;;;;5.10;1.20;;;;;;;-149.78;100.00;50545.75;5075008;28;20036;-62
2022/01/06 01:31:49;;;;;;;7.30;1.30;;;;;;;-149.78;100.00;50610.31;5075035;28;20490;-62
2022/01/06 01:34:20;;;;;;;5.18;1.10;;;;;;;-149.78;100.00;50592.72;5075104;28;20464;-62
2022/01/06 01:36:46;;;;;;;4.70;1.13;;;;;;;-149.78;100.00;50565.31;5057034;28;20498;-62
2022/01/06 01:39:11;;;;;;;4.45;1.13;;;;;;;-149.78;100.00;50549.69;5075053;28;20032;-62
2022/01/06 01:41:37;;;;;;;5.53;1.33;;;;;;;-149.78;100.00;50584.88;5074923;28;20036;-62
2022/01/06 01:44:11;;;;;;;1.85;1.08;;;;;;;-149.78;100.00;50561.41;5057338;28;20041;-62
2022/01/06 01:46:42;;;;;;;10.65;1.55;;;;;;;-149.78;100.00;50582.94;5058200;28;20115;-62
2022/01/06 01:49:17;;;;;;;5.50;1.40;;;;;;;-149.78;100.00;50549.69;5056953;28;20044;-62
2022/01/06 01:51:44;;;;;;;9.15;1.67;;;;;;;-149.78;100.00;50545.75;5074848;28;20028;-62
2022/01/06 01:54:10;;;;;;;3.55;1.13;;;;;;;-149.78;100.00;50553.59;5074708;28;20086;-62
2022/01/06 01:56:37;;;;;;;5.32;1.50;;;;;;;-149.78;100.00;50590.75;5057220;28;20036;-62
2022/01/06 01:59:03;;;;;;;9.80;1.00;;;;;;;-149.78;100.00;50575.09;5074681;28;20036;-62
2022/01/06 02:01:29;;;;;;;5.65;1.15;;;;;;;-149.78;100.00;50530.13;5074539;28;20101;-62
2022/01/06 02:03:54;;;;;;;6.05;1.50;;;;;;;-149.78;100.00;50553.59;5056740;28;20037;-62
2022/01/06 02:06:22;;;;;;;6.47;1.50;;;;;;;-149.78;100.00;50588.78;5073887;28;20123;-62
2022/01/06 02:08:48;;;;;;;1.65;1.00;;;;;;;-149.78;100.00;50573.16;5074346;28;20046;-62
2022/01/06 02:11:14;;;;;;;8.10;1.40;;;;;;;-149.78;100.00;50569.22;5056354;28;20124;-62
2022/01/06 02:13:48;;;;;;;3.78;1.00;;;;;;;-149.78;100.00;50588.78;5074306;28;20430;-62
2022/01/06 02:16:13;;;;;;;5.70;1.00;;;;;;;-149.78;100.00;50584.88;5074265;28;20036;-62
2022/01/06 02:18:39;;;;;;;5.28;1.23;;;;;;;-149.78;100.00;50600.53;5074402;28;20044;-62
2022/01/06 02:21:05;;;;;;;2.08;1.02;;;;;;;-149.78;100.00;50600.53;5072876;28;20387;-62
2022/01/06 02:23:31;;;;;;;9.43;1.63;;;;;;;-149.78;100.00;50553.59;5066378;28;20068;-62
2022/01/06 02:25:56;;;;;;;6.15;1.30;;;;;;;-149.78;100.00;50602.47;5073862;28;20480;-62
2022/01/06 02:28:22;;;;;;;5.47;1.08;;;;;;;-149.78;100.00;50584.88;5054080;28;20040;-62
2022/01/06 02:30:51;;;;;;;7.60;1.10;;;;;;;-149.78;100.00;50549.69;5073936;28;20043;-62
2022/01/06 02:33:19;;;;;;;8.38;1.55;;;;;;;-149.78;100.00;50606.41;5073981;28;20475;-62
2022/01/06 02:35:45;;;;;;;4.35;1.80;;;;;;;-149.78;100.00;50565.31;5056273;28;20039;-62
2022/01/06 02:38:11;;;;;;;8.32;1.10;;;;;;;-149.78;100.00;50557.50;5073585;28;20034;-62
2022/01/06 02:40:38;;;;;;;8.02;1.70;;;;;;;-149.78;100.00;50579.00;5073901;28;20037;-62
2022/01/06 02:43:06;;;;;;;7.18;1.48;;;;;;;-149.78;100.00;50588.78;5073795;28;20086;-62
2022/01/06 02:45:33;;;;;;;7.97;1.63;;;;;;;-149.78;100.00;50573.16;5039087;28;20036;-62
2022/01/06 02:48:08;;;;;;;8.27;1.50;;;;;;;-149.78;100.00;50557.50;5055467;28;20113;-62
2022/01/06 02:50:37;;;;;;;7.22;1.42;;;;;;;-149.78;100.00;50598.56;5073540;28;20036;-62
2022/01/06 02:53:06;;;;;;;11.82;2.13;;;;;;;-149.78;100.00;50557.50;5073263;28;20052;-62
2022/01/06 02:55:32;;;;;;;5.38;1.40;;;;;;;-149.78;100.00;50565.31;5073115;28;20032;-62
2022/01/06 02:57:58;;;;;;;6.07;1.40;;;;;;;-149.78;100.00;50534.03;5065225;28;20079;-62
2022/01/06 03:00:24;;;;;;;7.28;2.05;;;;;;;-149.78;100.00;50565.31;5053522;28;20068;-62
2022/01/06 03:02:49;;;;;;;6.43;1.38;;;;;;;-149.78;100.00;50543.81;5072743;28;20037;-62
2022/01/06 03:05:16;;;;;;;10.63;1.55;;;;;;;-149.78;100.00;50559.47;5055015;28;20047;-62
2022/01/06 03:07:43;;;;;;;10.10;1.80;;;;;;;-149.78;100.00;50563.38;5072588;28;20028;-62
2022/01/06 03:10:12;;;;;;;13.55;1.60;;;;;;;-149.78;100.00;50545.75;5072787;28;20040;-62
2022/01/06 03:12:41;;;;;;;12.45;2.72;;;;;;;-149.78;100.00;50537.94;5069723;28;20032;-62
2022/01/06 03:15:09;;;;;;;8.70;1.88;;;;;;;-149.78;100.00;50534.03;5072839;28;20032;-62
2022/01/06 03:17:39;;;;;;;6.13;1.52;;;;;;;-149.78;100.00;50580.97;5055260;28;20029;-62
2022/01/06 03:20:07;;;;;;;11.15;1.85;;;;;;;-149.78;100.00;50594.66;5055127;28;20089;-62
2022/01/06 03:22:33;;;;;;;7.18;1.90;;;;;;;-149.78;100.00;50573.16;5073066;28;20036;-62
2022/01/06 03:25:00;;;;;;;4.60;1.50;;;;;;;-149.78;100.00;50557.50;5073235;28;20115;-62
2022/01/06 03:27:26;;;;;;;7.18;1.88;;;;;;;-149.78;100.00;50545.75;5072976;28;20085;-62
2022/01/06 03:29:52;;;;;;;7.15;1.48;;;;;;;-149.78;100.00;50573.16;5055362;28;20037;-62
2022/01/06 03:32:19;;;;;;;7.00;1.63;;;;;;;-149.78;100.00;50580.97;5072665;28;20171;-62
2022/01/06 03:34:46;;;;;;;7.28;1.92;;;;;;;-149.78;100.00;50537.94;5073139;28;20029;-62
2022/01/06 03:37:13;;;;;;;6.50;1.38;;;;;;;-149.78;100.00;50584.88;5072931;28;20476;-62
2022/01/06 03:39:39;;;;;;;9.68;1.63;;;;;;;-149.78;100.00;50537.94;5055247;28;20068;-62
2022/01/06 03:42:05;;;;;;;8.93;1.60;;;;;;;-149.78;100.00;50565.31;5072518;28;20020;-62
2022/01/06 03:44:31;;;;;;;8.43;2.03;;;;;;;-149.78;100.00;50557.50;5072550;28;20479;-62
2022/01/06 03:46:58;;;;;;;9.15;1.83;;;;;;;-149.78;100.00;50565.31;5072549;28;20545;-62
2022/01/06 03:49:23;;;;;;;3.78;1.42;;;;;;;-149.78;100.00;50582.94;5072770;28;20032;-62
2022/01/06 03:51:49;;;;;;;13.35;1.90;;;;;;;-149.78;100.00;50573.16;5072544;28;20473;-62
2022/01/06 03:54:15;;;;;;;8.48;1.98;;;;;;;-149.78;100.00;50545.75;5072537;28;20036;-62
2022/01/06 03:56:41;;;;;;;7.00;1.75;;;;;;;-149.78;100.00;50553.59;5054948;28;20044;-62
2022/01/06 03:59:07;;;;;;;6.63;1.70;;;;;;;-149.78;100.00;50510.56;5072557;28;20032;-62
2022/01/06 04:01:33;;;;;;;10.60;1.95;;;;;;;-149.78;100.00;50557.50;5072364;28;20039;-62
2022/01/06 04:03:59;;;;;;;13.18;1.63;;;;;;;-149.78;100.00;50530.13;5072265;28;20041;-62
2022/01/06 04:06:25;;;;;;;10.85;1.60;;;;;;;-149.78;100.00;50537.94;5072303;28;20041;-62
2022/01/06 04:08:51;;;;;;;5.07;1.65;;;;;;;-149.78;100.00;50553.59;5072528;28;20037;-62
2022/01/06 04:11:20;;;;;;;12.23;2.22;;;;;;;-149.78;100.00;50541.84;5072775;28;20028;-62
2022/01/06 04:13:45;;;;;;;12.07;1.92;;;;;;;-149.78;100.00;50557.50;5072789;28;20051;-62
2022/01/06 04:16:14;;;;;;;7.82;1.58;;;;;;;-149.78;100.00;50537.94;5072196;28;20041;-62
2022/01/06 04:18:40;;;;;;;10.40;1.55;;;;;;;-149.78;100.00;50569.22;5054495;28;20133;-62
2022/01/06 04:21:07;;;;;;;9.50;1.73;;;;;;;-149.78;100.00;50555.53;5072272;28;20076;-62
2022/01/06 04:23:33;;;;;;;7.78;1.45;;;;;;;-149.78;100.00;50561.41;5072270;28;20151;-62
2022/01/06 04:26:00;;;;;;;9.32;1.80;;;;;;;-149.78;100.00;50537.94;5072166;28;20037;-62
2022/01/06 04:28:25;;;;;;;10.07;2.15;;;;;;;-149.78;100.00;50532.06;5069875;28;20154;-62
2022/01/06 04:30:51;;;;;;;6.32;1.70;;;;;;;-149.78;100.00;50543.81;5071030;28;20459;-62
2022/01/06 04:33:18;;;;;;;8.27;1.98;;;;;;;-149.78;100.00;50573.16;5067418;28;20049;-62
2022/01/06 04:35:43;;;;;;;7.40;1.92;;;;;;;-149.78;100.00;50530.13;5051223;28;20040;-62
2022/01/06 04:38:09;;;;;;;5.38;1.73;;;;;;;-149.78;100.00;50553.59;5051959;28;20063;-62
2022/01/06 04:40:35;;;;;;;9.75;2.28;;;;;;;-149.78;100.00;50575.09;5052022;28;20090;-62
2022/01/06 04:43:01;;;;;;;12.85;2.00;;;;;;;-149.78;100.00;50592.72;5052149;28;20041;-62
2022/01/06 04:45:26;;;;;;;9.65;1.80;;;;;;;-149.78;100.00;50553.59;5054769;28;20036;-62
2022/01/06 04:47:52;;;;;;;5.80;1.95;;;;;;;-149.78;100.00;50565.31;5055608;28;20041;-62
2022/01/06 04:50:17;;;;;;;8.07;1.65;;;;;;;-149.78;100.00;50579.00;5055704;28;20370;-62
2022/01/06 04:52:43;;;;;;;5.80;1.40;;;;;;;-149.78;100.00;50541.84;5055947;28;20360;-62
2022/01/06 04:55:09;;;;;;;10.15;1.90;;;;;;;-149.78;100.00;50561.41;5055398;28;20075;-62
2022/01/06 04:57:35;;;;;;;8.80;2.10;;;;;;;-149.78;100.00;50526.22;5073156;28;20064;-62
2022/01/06 05:00:01;;;;;;;9.68;2.30;;;;;;;-149.78;100.00;50526.22;5075130;28;20044;-62
2022/01/06 05:02:26;;;;;;;5.90;1.67;;;;;;;-149.78;100.00;50565.31;5075617;28;20051;-62
2022/01/06 05:04:52;;;;;;;8.77;1.83;;;;;;;-149.78;100.00;50555.53;5075023;28;20078;-62
2022/01/06 05:07:17;;;;;;;9.85;2.13;;;;;;;-149.78;100.00;50553.59;5075273;28;20044;-62
2022/01/06 05:09:43;;;;;;;11.15;1.90;;;;;;;-149.78;100.00;50541.84;5075153;28;20406;-62
2022/01/06 05:12:08;;;;;;;9.40;2.17;;;;;;;-149.78;100.00;50596.63;5075094;28;20364;-62
2022/01/06 05:14:34;;;;;;;11.98;2.63;;;;;;;-149.78;100.00;50573.16;5057125;28;20389;-62
2022/01/06 05:17:00;;;;;;;5.32;1.50;;;;;;;-149.78;100.00;50545.75;5075354;28;20032;-62
2022/01/06 05:19:26;;;;;;;8.82;2.10;;;;;;;-149.78;100.00;50549.69;5075565;28;20020;-62
2022/01/06 05:21:53;;;;;;;16.88;2.58;;;;;;;-149.78;100.00;50569.22;5075161;28;20049;-62
2022/01/06 05:24:19;;;;;;;8.38;1.85;;;;;;;-149.78;100.00;50592.72;5075346;28;20119;-62
2022/01/06 05:26:45;;;;;;;7.15;2.00;;;;;;;-149.78;100.00;50549.69;5075274;28;20036;-62
2022/01/06 05:29:13;;;;;;;8.80;2.22;;;;;;;-149.78;100.00;50580.97;5074996;28;20032;-62
2022/01/06 05:31:39;;;;;;;11.27;2.17;;;;;;;-149.78;100.00;50537.94;5075005;28;20447;-62
2022/01/06 05:34:06;;;;;;;9.63;3.38;;;;;;;-149.78;100.00;50553.59;5075170;28;20040;-62
2022/01/06 05:36:32;;;;;;;9.55;2.53;;;;;;;-149.78;100.00;50582.94;5057117;28;20039;-62
2022/01/06 05:38:59;;;;;;;8.10;2.58;;;;;;;-149.78;100.00;50534.03;5075045;28;20028;-62
2022/01/06 05:41:25;;;;;;;7.22;2.50;;;;;;;-149.78;100.00;50561.41;5074812;28;20037;-62
2022/01/06 05:43:50;;;;;;;10.65;2.20;;;;;;;-149.78;100.00;50584.88;5075106;28;20047;-62
2022/01/06 05:46:18;;;;;;;7.82;2.22;;;;;;;-149.78;100.00;50577.06;5074917;28;20037;-62
2022/01/06 05:48:45;;;;;;;10.30;2.40;;;;;;;-149.78;100.00;50537.94;5074712;28;20123;-61
2022/01/06 05:51:11;;;;;;;7.00;2.70;;;;;;;-149.78;100.00;50549.69;5074695;28;20776;-62
2022/01/06 05:53:36;;;;;;;7.00;2.30;;;;;;;-149.78;100.00;50539.91;5074641;28;20104;-62
2022/01/06 05:56:03;;;;;;;14.98;3.65;;;;;;;-149.78;100.00;50534.03;5074758;28;20044;-62
2022/01/06 05:58:29;;;;;;;8.43;3.05;;;;;;;-149.78;100.00;50549.69;5074529;28;20037;-62
2022/01/06 06:00:55;;;;;;;12.27;3.85;;;;;;;-149.78;100.00;50537.94;5074610;28;20041;-62
2022/01/06 06:03:22;;;;;;;11.65;3.13;;;;;;;-149.78;100.00;50551.63;5074459;28;20036;-62
2022/01/06 06:05:48;;;;;;;12.30;2.83;;;;;;;-149.78;100.00;50537.94;5052478;28;20086;-62
2022/01/06 06:08:14;;;;;;;14.25;4.03;;;;;;;-149.78;100.00;50561.41;5054534;28;20434;-62
2022/01/06 06:10:39;;;;;;;12.05;3.30;;;;;;;-149.78;100.00;50549.69;5054323;28;20128;-62
2022/01/06 06:13:05;;;;;;;7.80;3.40;;;;;;;-149.78;100.00;50577.06;5036611;28;20044;-62
2022/01/06 06:15:35;;;;;;;13.98;4.07;;;;;;;-149.78;100.00;50565.31;5054238;28;20036;-62
2022/01/06 06:18:04;;;;;;;12.48;3.88;;;;;;;-149.78;100.00;50545.75;5054212;28;20045;-62
2022/01/06 06:20:30;;;;;;;9.65;4.10;;;;;;;-149.78;100.00;50584.88;5053883;28;20051;-62
2022/01/06 06:22:57;;;;;;;23.27;5.28;;;;;;;-149.78;100.00;50545.75;5054351;28;20028;-62
2022/01/06 06:25:23;;;;;;;11.20;3.75;;;;;;;-149.78;100.00;50563.38;5054117;28;20071;-62
2022/01/06 06:27:49;;;;;;;17.05;4.57;;;;;;;-149.78;100.00;50553.59;5058473;28;20487;-62
2022/01/06 06:30:15;;;;;;;13.98;4.40;;;;;;;-149.78;100.00;50557.50;5073891;28;20040;-62
2022/01/06 06:32:41;;;;;;;14.35;4.80;;;;;;;-149.78;100.00;50573.16;5056194;28;20042;-62
2022/01/06 06:35:07;;;;;;;11.98;4.20;;;;;;;-149.78;100.00;50573.16;5073806;28;20037;-62
2022/01/06 06:37:33;;;;;;;18.42;6.00;;;;;;;-149.78;100.00;50592.72;5073822;28;20040;-62
2022/01/06 06:39:59;;;;;;;13.18;5.43;;;;;;;-149.78;100.00;50545.75;5073878;28;20039;-62
2022/01/06 06:42:26;;;;;;;16.05;5.22;;;;;;;-149.78;100.00;50573.16;5073591;28;20036;-62
2022/01/06 06:44:52;;;;;;;14.98;4.63;;;;;;;-149.78;100.00;50569.22;5073843;28;20056;-62
2022/01/06 06:47:17;;;;;;;18.30;5.53;;;;;;;-149.78;100.00;50545.75;5055708;28;20122;-62
2022/01/06 06:49:43;;;;;;;33.25;6.57;;;;;;;-149.78;100.00;50526.22;5073595;28;20444;-63
2022/01/06 06:52:12;;;;;;;18.30;5.20;;;;;;;-149.78;100.00;50563.38;5055761;28;20464;-62
2022/01/06 06:54:38;;;;;;;16.15;5.30;;;;;;;-149.78;100.00;50541.84;5073542;28;20044;-62
2022/01/06 06:57:04;;;;;;;15.82;4.95;;;;;;;-149.78;100.00;50584.88;5073538;28;20041;-62
2022/01/06 06:59:31;;;;;;;19.08;5.88;;;;;;;-149.78;100.00;50553.59;5073478;28;20468;-62
2022/01/06 07:01:57;;;;;;;28.42;5.30;;;;;;;-149.78;100.00;50541.84;5073418;28;20036;-62
2022/01/06 07:04:23;;;;;;;27.52;6.10;;;;;;;-149.78;100.00;50592.72;5072983;28;20043;-62
2022/01/06 07:06:51;;;;;;;18.23;5.22;;;;;;;-149.78;100.00;50580.97;5068633;28;20399;-62
2022/01/06 07:09:17;;;;;;;39.03;6.22;;;;;;;-149.78;100.00;50573.16;5069089;28;20040;-62
2022/01/06 07:11:42;;;;;;;25.58;5.78;;;;;;;-149.78;100.00;50534.03;5062792;28;20380;-62
2022/01/06 07:14:08;;;;;;;21.55;5.70;;;;;;;-149.78;100.00;50532.06;5059816;28;20045;-62
2022/01/06 07:16:33;;;;;;;21.30;6.13;;;;;;;-149.78;100.00;50571.19;5060369;28;20032;-62
2022/01/06 07:18:59;;;;;;;31.48;5.30;;;;;;;-149.78;100.00;50580.97;5069522;28;20357;-62
2022/01/06 07:21:27;;;;;;;23.90;4.95;;;;;;;-149.78;100.00;50545.75;5067308;28;20377;-63
2022/01/06 07:23:53;;;;;;;26.50;5.15;;;;;;;-149.78;100.00;50571.19;5063513;28;20032;-62
2022/01/06 07:26:19;;;;;;;22.60;5.40;;;;;;;-149.78;100.00;50565.31;5062797;28;20430;-62
2022/01/06 07:28:44;;;;;;;17.77;5.05;;;;;;;-149.78;100.00;50549.69;5063134;28;20039;-62
2022/01/06 07:31:11;;;;;;;18.90;4.43;;;;;;;-149.78;100.00;50541.84;5062846;28;20029;-62
2022/01/06 07:33:37;;;;;;;14.57;4.78;;;;;;;-149.78;100.00;50549.69;5065600;28;20025;-62
2022/01/06 07:36:03;;;;;;;13.25;4.38;;;;;;;-149.78;100.00;50580.97;5065733;28;20453;-62
2022/01/06 07:38:29;;;;;;;20.80;4.70;;;;;;;-149.78;100.00;50553.59;5066018;28;20032;-62
2022/01/06 07:40:55;;;;;;;16.25;4.68;;;;;;;-149.78;100.00;50535.97;5072867;28;20391;-62
2022/01/06 07:43:21;;;;;;;19.65;4.10;;;;;;;-149.78;100.00;50549.69;5072703;28;20044;-62
2022/01/06 07:45:49;;;;;;;18.15;3.95;;;;;;;-149.78;100.00;50541.84;5055031;28;20086;-61
2022/01/06 07:48:17;;;;;;;18.08;4.00;;;;;;;-149.78;100.00;50569.22;5072480;28;20044;-62
2022/01/06 07:50:46;;;;;;;22.27;4.63;;;;;;;-149.78;100.00;50549.69;5072705;28;20111;-62
2022/01/06 07:53:12;;;;;;;9.30;4.00;;;;;;;-149.78;100.00;50530.13;5072003;28;20036;-62
2022/01/06 07:55:38;;;;;;;13.55;4.32;;;;;;;-149.78;100.00;50563.38;5072361;28;20476;-62
2022/01/06 07:58:03;;;;;;;12.60;4.28;;;;;;;-149.78;100.00;50498.81;5072315;28;20028;-62
2022/01/06 08:00:30;;;;;;;12.68;3.88;;;;;;;-149.78;100.00;50557.50;5054267;28;20043;-61
2022/01/06 08:02:56;;;;;;;17.48;3.85;;;;;;;-149.78;100.00;50577.06;5067099;28;20041;-61
2022/01/06 08:05:24;;;;;;;13.38;4.20;;;;;;;-149.78;100.00;50549.69;5066168;28;20067;-62
2022/01/06 08:07:50;;;;;;;13.57;3.83;;;;;;;-149.78;100.00;50557.50;5068301;28;20044;-62
2022/01/06 08:10:16;;;;;;;13.15;4.10;;;;;;;-149.78;100.00;50549.69;5063338;28;20044;-62
2022/01/06 08:12:42;;;;;;;14.80;4.20;;;;;;;-149.78;100.00;50602.47;5067620;28;20037;-62
2022/01/06 08:15:08;;;;;;;14.15;4.40;;;;;;;-149.78;100.00;50530.13;5065831;28;20048;-62
2022/01/06 08:17:36;;;;;;;18.20;4.97;;;;;;;-149.78;100.00;50547.72;5062281;28;20055;-62
2022/01/06 08:20:07;;;;;;;14.43;4.60;;;;;;;-149.78;100.00;50532.06;5070129;28;20429;-62
2022/01/06 08:22:32;;;;;;;17.88;5.85;;;;;;;-149.78;100.00;50549.69;5061638;28;20054;-62
2022/01/06 08:24:58;;;;;;;12.32;5.10;;;;;;;-149.78;100.00;50522.28;5067862;28;20071;-64
2022/01/06 08:27:24;;;;;;;19.65;5.38;;;;;;;-149.78;100.00;50573.16;5066646;28;20372;-62
2022/01/06 08:29:52;;;;;;;17.02;6.25;;;;;;;-149.78;100.00;50553.59;5056060;28;20044;-62
2022/01/06 08:32:19;;;;;;;22.45;5.90;;;;;;;-149.78;100.00;50565.31;5063075;28;20032;-61
2022/01/06 08:34:45;;;;;;;20.15;6.00;;;;;;;-149.78;100.00;50545.75;5073418;28;20032;-61
2022/01/06 08:37:10;;;;;;;17.13;5.97;;;;;;;-149.78;100.00;50545.75;5065650;28;20049;-65
2022/01/06 08:39:36;;;;;;;17.38;6.38;;;;;;;-149.78;100.00;50588.78;5060301;28;20032;-63
2022/01/06 08:42:03;;;;;;;24.77;6.78;;;;;;;-149.78;100.00;50549.69;5065613;28;20029;-63
2022/01/06 08:44:30;;;;;;;18.42;6.20;;;;;;;-149.78;100.00;50549.69;5057665;28;20084;-63
2022/01/06 08:46:56;;;;;;;17.55;7.20;;;;;;;-149.78;100.00;50518.38;5055546;28;20075;-63
2022/01/06 08:49:22;;;;;;;20.38;7.05;;;;;;;-149.78;100.00;50561.41;5055473;28;20040;-63
2022/01/06 08:51:49;;;;;;;20.75;6.65;;;;;;;-149.78;100.00;50557.50;5054974;28;20121;-63
2022/01/06 08:54:15;;;;;;;19.15;7.40;;;;;;;-149.78;100.00;50588.78;5068323;28;20040;-63
2022/01/06 08:56:40;;;;;;;18.95;7.40;;;;;;;-149.78;100.00;50549.69;5075229;28;20090;-63
2022/01/06 08:59:06;;;;;;;34.53;8.00;;;;;;;-149.78;100.00;50534.03;5075158;28;20040;-63
2022/01/06 09:01:32;;;;;;;21.25;8.43;;;;;;;-149.78;100.00;50545.75;5069354;28;20033;-63
2022/01/06 09:03:58;;;;;;;20.30;8.85;;;;;;;-149.78;100.00;50553.59;5065478;28;20428;-63
2022/01/06 09:06:24;;;;;;;22.83;9.13;;;;;;;-149.78;100.00;50553.59;5075630;28;20028;-63
2022/01/06 09:08:50;;;;;;;22.33;8.93;;;;;;;-149.78;100.00;50573.16;5075599;28;20101;-63
2022/01/06 09:11:16;;;;;;;28.33;8.90;;;;;;;-149.78;100.00;50541.84;5075587;28;20069;-63
2022/01/06 09:13:42;;;;;;;23.80;8.20;;;;;;;-149.78;100.00;50573.16;5057429;28;20051;-63
2022/01/06 09:16:09;;;;;;;23.80;8.80;;;;;;;-149.78;100.00;50541.84;5075507;28;20044;-63
2022/01/06 09:18:39;;;;;;;19.42;7.90;;;;;;;-149.78;100.00;50571.19;5075497;28;20541;-63
2022/01/06 09:21:06;;;;;;;19.10;8.07;;;;;;;-149.78;100.00;50522.28;5057353;28;20041;-63
2022/01/06 09:23:32;;;;;;;24.60;7.65;;;;;;;-149.78;100.00;50526.22;5075179;28;20518;-63
2022/01/06 09:25:57;;;;;;;23.40;8.13;;;;;;;-149.78;100.00;50543.81;5075298;28;20029;-63
2022/01/06 09:28:23;;;;;;;30.35;8.38;;;;;;;-149.78;100.00;50580.97;5074778;28;20044;-63
2022/01/06 09:30:52;;;;;;;17.75;8.05;;;;;;;-149.78;100.00;50549.69;5074574;28;20372;-63
2022/01/06 09:33:19;;;;;;;23.33;7.80;;;;;;;-149.78;100.00;50522.28;5075255;28;20028;-63
2022/01/06 09:35:50;;;;;;;19.33;6.45;;;;;;;-149.78;100.00;50545.75;5075193;28;20529;-63
2022/01/06 09:38:15;;;;;;;16.52;5.10;;;;;;;-149.78;100.00;50537.94;5075004;28;20037;-63
2022/01/06 09:40:43;;;;;;;13.88;4.03;;;;;;;-149.78;100.00;50539.91;5074759;28;20037;-63
2022/01/06 09:43:12;;;;;;;13.07;4.20;;;;;;;-149.78;100.00;50541.84;5074440;28;20106;-63
2022/01/06 09:45:40;;;;;;;8.88;4.03;;;;;;;-149.78;100.00;50557.50;5074946;28;20082;-64
2022/01/06 09:48:06;;;;;;;14.15;4.63;;;;;;;-149.78;100.00;50514.47;5072156;28;20515;-63
2022/01/06 09:50:32;;;;;;;18.83;4.28;;;;;;;-149.78;100.00;50553.59;5064809;28;20387;-64
2022/01/06 09:52:58;;;;;;;14.00;3.78;;;;;;;-149.78;100.00;50580.97;5068865;28;20028;-64
2022/01/06 09:55:25;;;;;;;13.25;4.05;;;;;;;-149.78;100.00;50541.84;5062402;28;20492;-64
2022/01/06 09:57:57;;;;;;;12.38;4.35;;;;;;;-149.78;100.00;50561.41;5071263;28;20048;-63
2022/01/06 10:00:24;;;;;;;10.80;3.88;;;;;;;-149.78;100.00;50534.03;5074492;28;20464;-63
2022/01/06 10:03:01;;;;;;;13.73;3.85;;;;;;;-149.78;100.00;50539.91;5074514;28;20119;-64
2022/01/06 10:05:40;;;;;;;14.00;3.80;;;;;;;-149.78;100.00;50522.28;5074277;28;20040;-64
2022/01/06 10:08:07;;;;;;;13.55;4.20;;;;;;;-149.78;100.00;50553.59;5074382;28;20059;-63
2022/01/06 10:10:34;;;;;;;12.05;4.40;;;;;;;-149.78;100.00;50553.59;5074530;28;20033;-63
2022/01/06 10:13:05;;;;;;;11.25;4.22;;;;;;;-149.78;100.00;50522.28;5071985;28;20117;-64
2022/01/06 10:15:32;;;;;;;14.45;4.70;;;;;;;-149.78;100.00;50510.56;5069950;28;20048;-63
2022/01/06 10:17:58;;;;;;;11.45;4.55;;;;;;;-149.78;100.00;50557.50;5056166;28;20048;-64
2022/01/06 10:20:27;;;;;;;17.45;4.85;;;;;;;-149.78;100.00;50541.84;5074065;28;20036;-64
2022/01/06 10:22:55;;;;;;;9.85;3.75;;;;;;;-149.78;100.00;50557.50;5073752;28;20131;-64
2022/01/06 10:25:24;;;;;;;12.23;4.05;;;;;;;-149.78;100.00;50518.38;5055651;28;20028;-64
2022/01/06 10:27:52;;;;;;;13.15;3.90;;;;;;;-149.78;100.00;50526.22;5058701;28;20032;-64
2022/01/06 10:30:18;;;;;;;9.75;3.88;;;;;;;-149.78;100.00;50553.59;5073894;28;20467;-64
2022/01/06 10:32:44;;;;;;;13.00;3.80;;;;;;;-149.78;100.00;50551.63;5073905;28;20041;-64
2022/01/06 10:35:11;;;;;;;16.33;4.03;;;;;;;-149.78;100.00;50526.22;5073601;28;20517;-64
2022/01/06 10:37:44;;;;;;;13.13;3.50;;;;;;;-149.78;100.00;50534.03;5055897;28;20044;-64
2022/01/06 10:40:17;;;;;;;11.80;3.20;;;;;;;-149.78;100.00;50569.22;5073555;28;20102;-64
2022/01/06 10:42:50;;;;;;;6.47;2.97;;;;;;;-149.78;100.00;50532.06;5072878;28;20093;-64
2022/01/06 10:45:25;;;;;;;7.95;3.28;;;;;;;-149.78;100.00;50537.94;5073700;28;20036;-64
2022/01/06 10:47:55;;;;;;;9.05;3.35;;;;;;;-149.78;100.00;50530.13;5073554;28;20033;-64
2022/01/06 10:50:28;;;;;;;10.90;3.17;;;;;;;-149.78;100.00;50514.47;5073287;28;20081;-64
2022/01/06 10:53:00;;;;;;;12.40;3.17;;;;;;;-149.78;100.00;50532.06;5065800;28;20113;-64
2022/01/06 10:55:28;;;;;;;13.23;3.22;;;;;;;-149.78;100.00;50530.13;5073463;28;20032;-64
2022/01/06 10:58:00;;;;;;;6.82;2.97;;;;;;;-149.78;100.00;50561.41;5071783;28;20039;-64
2022/01/06 11:00:38;;;;;;;11.73;3.03;;;;;;;-149.78;100.00;50565.31;5055632;28;20115;-64
2022/01/06 11:03:11;;;;;;;9.43;3.35;;;;;;;-149.78;100.00;50530.13;5055358;28;20068;-64
2022/01/06 11:05:39;;;;;;;11.25;3.30;;;;;;;-149.78;100.00;50485.13;5055262;28;20021;-64
2022/01/06 11:08:07;;;;;;;12.85;3.00;;;;;;;-149.78;100.00;50502.75;5073558;28;20052;-66
2022/01/06 11:10:36;;;;;;;9.15;2.80;;;;;;;-149.78;100.00;50522.28;5054141;28;20056;-64